Time,TemperatureF,DewpointF,PressureIn,WindDirection,WindDirectionDegrees,WindSpeedMPH,WindSpeedGustMPH,Humidity,HourlyPrecipIn,Conditions,Clouds,dailyrainin,SoftwareType,DateUTC
2013-03-11 00:00:00,50.7,39.4,30.18,ENE,65,0.0,0.0,65,0.00,,CLR,0.00,VWS V14.01,2013-03-11 04:00:00,
2013-03-11 00:03:00,50.6,39.3,30.18,ENE,65,0.0,0.0,65,0.00,,CLR,0.00,VWS V14.01,2013-03-11 04:03:00,
2013-03-11 00:08:00,50.3,39.0,30.18,ENE,65,0.0,0.0,65,0.00,,CLR,0.00,VWS V14.01,2013-03-11 04:08:00,
2013-03-11 00:13:00,50.0,39.9,30.18,ENE,65,0.0,0.0,68,0.00,,CLR,0.00,VWS V14.01,2013-03-11 04:13:00,
2013-03-11 00:15:00,49.9,39.8,30.18,ENE,65,0.0,0.0,68,0.00,,CLR,0.00,VWS V14.01,2013-03-11 04:15:00,
2013-03-11 00:23:00,49.2,39.8,30.17,ENE,64,0.0,0.0,70,0.00,,CLR,0.00,VWS V14.01,2013-03-11 04:23:00,
2013-03-11 00:30:00,48.8,40.2,30.17,ENE,64,0.0,0.0,72,0.00,,CLR,0.00,VWS V14.01,2013-03-11 04:30:00,
2013-03-11 00:38:00,48.4,40.2,30.16,ENE,65,0.0,0.0,73,0.00,,CLR,0.00,VWS V14.01,2013-03-11 04:38:00,
2013-03-11 00:43:00,48.2,40.0,30.17,ENE,65,0.0,0.0,73,0.00,,CLR,0.00,VWS V14.01,2013-03-11 04:43:00,
2013-03-11 00:45:00,48.1,39.9,30.17,ENE,64,0.0,0.0,73,0.00,,SCT070,0.00,VWS V14.01,2013-03-11 04:45:00,
2013-03-11 00:48:00,47.9,39.7,30.17,ENE,65,0.0,0.0,73,0.00,,CLR,0.00,VWS V14.01,2013-03-11 04:48:00,
2013-03-11 00:53:00,47.7,39.5,30.17,ENE,64,0.0,0.0,73,0.00,,CLR,0.00,VWS V14.01,2013-03-11 04:53:00,
2013-03-11 00:58:00,47.6,39.7,30.16,ENE,65,0.0,0.0,74,0.00,,CLR,0.00,VWS V14.01,2013-03-11 04:58:00,
2013-03-11 01:00:00,47.5,39.6,30.16,ENE,64,0.0,0.0,74,0.00,,SCT070,0.00,VWS V14.01,2013-03-11 05:00:00,
2013-03-11 01:03:00,47.4,39.5,30.16,ENE,65,0.0,0.0,74,0.00,,CLR,0.00,VWS V14.01,2013-03-11 05:03:00,
2013-03-11 01:08:00,47.2,39.7,30.16,ENE,65,0.0,0.0,75,0.00,,CLR,0.00,VWS V14.01,2013-03-11 05:08:00,
2013-03-11 01:13:00,47.1,39.6,30.16,ENE,64,0.0,0.0,75,0.00,,CLR,0.00,VWS V14.01,2013-03-11 05:13:00,
2013-03-11 01:15:00,47.0,39.5,30.16,ENE,65,0.0,0.0,75,0.00,,SCT070,0.00,VWS V14.01,2013-03-11 05:15:00,
2013-03-11 01:23:00,46.8,39.7,30.16,ENE,65,0.0,0.0,76,0.00,,CLR,0.00,VWS V14.01,2013-03-11 05:23:00,
2013-03-11 01:30:00,46.7,39.9,30.15,ENE,65,0.0,0.0,77,0.00,,CLR,0.00,VWS V14.01,2013-03-11 05:30:00,
2013-03-11 01:38:00,46.5,40.0,30.15,ENE,65,0.0,0.0,78,0.00,,CLR,0.00,VWS V14.01,2013-03-11 05:38:00,
2013-03-11 01:43:00,46.5,40.0,30.15,ENE,64,0.0,0.0,78,0.00,,CLR,0.00,VWS V14.01,2013-03-11 05:43:00,
2013-03-11 01:45:00,46.4,39.9,30.15,ENE,65,0.0,0.0,78,0.00,,SCT070,0.00,VWS V14.01,2013-03-11 05:45:00,
2013-03-11 01:48:00,46.4,40.2,30.15,ENE,65,0.0,0.0,79,0.00,,CLR,0.00,VWS V14.01,2013-03-11 05:48:00,
2013-03-11 01:58:00,46.3,40.5,30.15,ENE,65,0.0,0.0,80,0.00,,CLR,0.00,VWS V14.01,2013-03-11 05:58:00,
2013-03-11 02:00:00,46.3,40.5,30.15,ENE,64,0.0,0.0,80,0.00,,SCT070,0.00,VWS V14.01,2013-03-11 06:00:00,
2013-03-11 02:03:00,46.3,40.5,30.15,ENE,65,0.0,0.0,80,0.00,,CLR,0.00,VWS V14.01,2013-03-11 06:03:00,
2013-03-11 02:13:00,46.2,40.4,30.14,ENE,65,0.0,0.0,80,0.00,,CLR,0.00,VWS V14.01,2013-03-11 06:13:00,
2013-03-11 02:15:00,46.2,40.4,30.14,ENE,65,0.0,0.0,80,0.00,,SCT070,0.00,VWS V14.01,2013-03-11 06:15:00,
2013-03-11 02:18:00,46.1,40.0,30.14,ENE,65,0.0,0.0,79,0.00,,CLR,0.00,VWS V14.01,2013-03-11 06:18:00,
2013-03-11 02:28:00,46.1,40.3,30.14,ENE,65,0.0,0.0,80,0.00,,CLR,0.00,VWS V14.01,2013-03-11 06:28:00,
2013-03-11 02:30:00,46.1,40.6,30.14,ENE,65,0.0,0.0,81,0.00,,SCT070,0.00,VWS V14.01,2013-03-11 06:30:00,
2013-03-11 02:38:00,46.0,40.5,30.14,ENE,65,0.0,0.0,81,0.00,,CLR,0.00,VWS V14.01,2013-03-11 06:38:00,
2013-03-11 02:43:00,46.0,40.5,30.13,ENE,65,0.0,0.0,81,0.00,,CLR,0.00,VWS V14.01,2013-03-11 06:43:00,
2013-03-11 02:45:00,45.9,40.4,30.13,ENE,65,0.0,0.0,81,0.00,,SCT070,0.00,VWS V14.01,2013-03-11 06:45:00,
2013-03-11 02:53:00,45.8,40.3,30.12,ENE,64,0.0,0.0,81,0.00,,CLR,0.00,VWS V14.01,2013-03-11 06:53:00,
2013-03-11 02:58:00,45.7,40.2,30.12,ENE,64,0.0,0.0,81,0.00,,CLR,0.00,VWS V14.01,2013-03-11 06:58:00,
2013-03-11 03:00:00,45.7,40.2,30.12,ENE,65,0.0,0.0,81,0.00,,SCT070,0.00,VWS V14.01,2013-03-11 07:00:00,
2013-03-11 03:08:00,45.6,40.4,30.12,ENE,65,0.0,0.0,82,0.00,,CLR,0.00,VWS V14.01,2013-03-11 07:08:00,
2013-03-11 03:13:00,45.7,40.5,30.12,ENE,65,0.0,0.0,82,0.00,,CLR,0.00,VWS V14.01,2013-03-11 07:13:00,
2013-03-11 03:15:00,45.7,40.5,30.12,ENE,64,0.0,0.0,82,0.00,,SCT070,0.00,VWS V14.01,2013-03-11 07:15:00,
2013-03-11 03:23:00,45.6,40.4,30.12,ENE,64,0.0,0.0,82,0.00,,CLR,0.00,VWS V14.01,2013-03-11 07:23:00,
2013-03-11 03:30:00,45.6,40.4,30.11,ENE,65,0.0,0.0,82,0.00,,CLR,0.00,VWS V14.01,2013-03-11 07:30:00,
2013-03-11 03:38:00,45.6,40.7,30.11,ENE,64,0.0,0.0,83,0.00,,CLR,0.00,VWS V14.01,2013-03-11 07:38:00,
2013-03-11 03:43:00,45.6,40.7,30.11,ENE,65,0.0,0.0,83,0.00,,CLR,0.00,VWS V14.01,2013-03-11 07:43:00,
2013-03-11 03:45:00,45.6,40.7,30.11,ENE,65,0.0,0.0,83,0.00,,SCT070,0.00,VWS V14.01,2013-03-11 07:45:00,
2013-03-11 03:53:00,45.5,41.0,30.10,ENE,65,0.0,0.0,84,0.00,,CLR,0.00,VWS V14.01,2013-03-11 07:53:00,
2013-03-11 04:00:00,45.6,41.4,30.10,ENE,65,0.0,0.0,85,0.00,,CLR,0.00,VWS V14.01,2013-03-11 08:00:00,
2013-03-11 04:07:00,45.6,41.4,30.09,ENE,64,0.0,0.0,85,0.00,,CLR,0.00,VWS V14.01,2013-03-11 08:07:00,
2013-03-11 04:12:00,45.6,41.7,30.09,ENE,64,0.0,0.0,86,0.00,,CLR,0.00,VWS V14.01,2013-03-11 08:12:00,
2013-03-11 04:15:00,45.6,42.0,30.09,ENE,65,0.0,0.0,87,0.00,,SCT070,0.00,VWS V14.01,2013-03-11 08:15:00,
2013-03-11 04:22:00,45.7,42.1,30.09,ENE,65,0.0,0.0,87,0.00,,CLR,0.00,VWS V14.01,2013-03-11 08:22:00,
2013-03-11 04:30:00,45.9,42.5,30.09,ENE,64,0.0,0.0,88,0.00,,CLR,0.00,VWS V14.01,2013-03-11 08:30:00,
2013-03-11 04:37:00,46.1,42.8,30.09,ENE,65,0.0,0.0,88,0.00,,CLR,0.00,VWS V14.01,2013-03-11 08:37:00,
2013-03-11 04:45:00,46.2,43.1,30.09,ENE,65,0.0,0.0,89,0.00,,CLR,0.00,VWS V14.01,2013-03-11 08:45:00,
2013-03-11 04:52:00,46.2,42.8,30.09,ENE,64,0.0,0.0,88,0.00,,CLR,0.00,VWS V14.01,2013-03-11 08:52:00,
2013-03-11 05:00:00,46.2,43.1,30.09,ENE,64,0.0,0.0,89,0.00,,CLR,0.00,VWS V14.01,2013-03-11 09:00:00,
2013-03-11 05:07:00,46.2,43.1,30.08,ENE,65,0.0,0.0,89,0.00,,CLR,0.00,VWS V14.01,2013-03-11 09:07:00,
2013-03-11 05:15:00,46.5,43.7,30.08,ENE,65,0.0,0.0,90,0.00,,CLR,0.00,VWS V14.01,2013-03-11 09:15:00,
2013-03-11 05:22:00,47.0,44.5,30.09,ENE,65,0.0,0.0,91,0.00,,CLR,0.00,VWS V14.01,2013-03-11 09:22:00,
2013-03-11 05:27:00,47.2,44.7,30.09,ENE,65,0.0,0.0,91,0.00,,CLR,0.00,VWS V14.01,2013-03-11 09:27:00,
2013-03-11 05:30:00,47.4,45.2,30.09,ENE,65,0.0,0.0,92,0.00,,SCT070,0.00,VWS V14.01,2013-03-11 09:30:00,
2013-03-11 05:32:00,47.4,44.9,30.09,ENE,65,0.0,0.0,91,0.00,,CLR,0.00,VWS V14.01,2013-03-11 09:32:00,
2013-03-11 05:42:00,47.5,45.0,30.08,ENE,65,0.0,0.0,91,0.00,,CLR,0.00,VWS V14.01,2013-03-11 09:42:00,
2013-03-11 05:45:00,47.4,44.9,30.08,ENE,65,0.0,0.0,91,0.00,,SCT070,0.00,VWS V14.01,2013-03-11 09:45:00,
2013-03-11 05:47:00,47.4,44.9,30.08,ENE,64,0.0,0.0,91,0.00,,CLR,0.00,VWS V14.01,2013-03-11 09:47:00,
2013-03-11 05:57:00,47.4,44.9,30.08,ENE,65,0.0,0.0,91,0.00,,CLR,0.00,VWS V14.01,2013-03-11 09:57:00,
2013-03-11 06:00:00,47.4,44.9,30.08,ENE,64,0.0,0.0,91,0.00,,SCT070,0.00,VWS V14.01,2013-03-11 10:00:00,
2013-03-11 06:02:00,47.4,45.2,30.08,ENE,65,0.0,0.0,92,0.00,,CLR,0.00,VWS V14.01,2013-03-11 10:02:00,
2013-03-11 06:07:00,47.6,45.4,30.08,ENE,64,0.0,0.0,92,0.00,,CLR,0.00,VWS V14.01,2013-03-11 10:07:00,
2013-03-11 06:12:00,47.9,45.7,30.08,ENE,64,0.0,0.0,92,0.00,,CLR,0.00,VWS V14.01,2013-03-11 10:12:00,
2013-03-11 06:15:00,48.2,46.3,30.08,ENE,65,0.0,1.0,93,0.00,,SCT070,0.00,VWS V14.01,2013-03-11 10:15:00,
2013-03-11 06:22:00,49.0,46.8,30.08,ENE,64,0.0,1.0,92,0.00,,CLR,0.00,VWS V14.01,2013-03-11 10:22:00,
2013-03-11 06:27:00,49.3,47.1,30.08,ENE,65,0.0,1.0,92,0.00,,CLR,0.00,VWS V14.01,2013-03-11 10:27:00,
2013-03-11 06:30:00,49.4,47.2,30.08,ENE,65,0.0,1.0,92,0.00,,SCT070,0.00,VWS V14.01,2013-03-11 10:30:00,
2013-03-11 06:37:00,49.6,47.4,30.07,ENE,65,0.0,0.0,92,0.00,,CLR,0.00,VWS V14.01,2013-03-11 10:37:00,
2013-03-11 06:45:00,49.7,47.5,30.08,ENE,65,0.0,0.0,92,0.00,,CLR,0.00,VWS V14.01,2013-03-11 10:45:00,
2013-03-11 06:52:00,50.2,48.3,30.08,ENE,64,0.0,1.0,93,0.00,,CLR,0.00,VWS V14.01,2013-03-11 10:52:00,
2013-03-11 07:00:00,50.7,48.8,30.08,ENE,65,0.0,2.0,93,0.00,,CLR,0.00,VWS V14.01,2013-03-11 11:00:00,
2013-03-11 07:07:00,50.9,49.0,30.08,ENE,65,0.0,1.0,93,0.00,,CLR,0.00,VWS V14.01,2013-03-11 11:07:00,
2013-03-11 07:15:00,51.1,49.4,30.08,ENE,65,1.0,1.0,94,0.00,,CLR,0.00,VWS V14.01,2013-03-11 11:15:00,
2013-03-11 07:22:00,51.3,49.6,30.08,ENE,65,0.0,3.0,94,0.00,,CLR,0.00,VWS V14.01,2013-03-11 11:22:00,
2013-03-11 07:27:00,51.4,49.7,30.08,ENE,65,0.0,3.0,94,0.00,,CLR,0.00,VWS V14.01,2013-03-11 11:27:00,
2013-03-11 07:30:00,51.5,49.8,30.08,ENE,65,0.0,3.0,94,0.00,,SCT070,0.00,VWS V14.01,2013-03-11 11:30:00,
2013-03-11 07:42:00,51.7,50.0,30.08,ENE,65,0.0,1.0,94,0.00,,CLR,0.00,VWS V14.01,2013-03-11 11:42:00,
2013-03-11 07:45:00,51.7,50.0,30.08,ENE,65,0.0,1.0,94,0.00,,SCT070,0.00,VWS V14.01,2013-03-11 11:45:00,
2013-03-11 07:52:00,51.9,50.2,30.08,ENE,65,0.0,2.0,94,0.00,,CLR,0.00,VWS V14.01,2013-03-11 11:52:00,
2013-03-11 07:57:00,51.9,50.2,30.07,ENE,65,0.0,2.0,94,0.00,,CLR,0.00,VWS V14.01,2013-03-11 11:57:00,
2013-03-11 08:00:00,51.9,50.2,30.07,ENE,65,0.0,2.0,94,0.00,,SCT070,0.00,VWS V14.01,2013-03-11 12:00:00,
2013-03-11 08:07:00,51.7,50.0,30.07,ENE,65,0.0,1.0,94,0.00,,CLR,0.00,VWS V14.01,2013-03-11 12:07:00,
2013-03-11 08:12:00,51.7,50.0,30.07,ENE,65,0.0,2.0,94,0.00,,CLR,0.00,VWS V14.01,2013-03-11 12:12:00,
2013-03-11 08:15:00,51.7,50.0,30.07,ENE,65,0.0,2.0,94,0.00,,SCT070,0.00,VWS V14.01,2013-03-11 12:15:00,
2013-03-11 08:22:00,51.7,50.3,30.07,ENE,65,0.0,1.0,95,0.00,,CLR,0.00,VWS V14.01,2013-03-11 12:22:00,
2013-03-11 08:30:00,51.9,50.5,30.07,ENE,65,0.0,1.0,95,0.00,,CLR,0.00,VWS V14.01,2013-03-11 12:30:00,
2013-03-11 08:37:00,52.1,50.7,30.07,ENE,65,0.0,1.0,95,0.00,,CLR,0.00,VWS V14.01,2013-03-11 12:37:00,
2013-03-11 08:45:00,52.4,51.0,30.07,ENE,65,0.0,1.0,95,0.00,,CLR,0.00,VWS V14.01,2013-03-11 12:45:00,
2013-03-11 08:52:00,52.7,51.3,30.07,ENE,65,0.0,1.0,95,0.00,,CLR,0.00,VWS V14.01,2013-03-11 12:52:00,
2013-03-11 08:57:00,52.9,51.5,30.07,ENE,65,0.0,1.0,95,0.00,,CLR,0.00,VWS V14.01,2013-03-11 12:57:00,
2013-03-11 09:00:00,53.1,51.7,30.07,ENE,65,0.0,1.0,95,0.00,,SCT070,0.00,VWS V14.01,2013-03-11 13:00:00,
2013-03-11 09:02:00,53.2,51.8,30.07,ENE,65,0.0,1.0,95,0.00,,FEW046,0.00,VWS V14.01,2013-03-11 13:02:00,
2013-03-11 09:12:00,53.7,52.0,30.07,ENE,65,0.0,1.0,94,0.00,,FEW046,0.00,VWS V14.01,2013-03-11 13:12:00,
2013-03-11 09:15:00,53.9,52.2,30.07,ENE,65,0.0,2.0,94,0.00,,SCT070,0.00,VWS V14.01,2013-03-11 13:15:00,
2013-03-11 09:17:00,53.9,52.2,30.08,ENE,65,0.0,0.0,94,0.00,,FEW046,0.00,VWS V14.01,2013-03-11 13:17:00,
2013-03-11 09:27:00,54.4,52.4,30.08,ENE,65,0.0,0.0,93,0.00,,FEW046,0.00,VWS V14.01,2013-03-11 13:27:00,
2013-03-11 09:30:00,54.6,52.6,30.08,ENE,65,0.0,0.0,93,0.00,,SCT070,0.00,VWS V14.01,2013-03-11 13:30:00,
2013-03-11 09:32:00,54.8,52.8,30.08,ENE,65,0.0,0.0,93,0.00,,FEW046,0.00,VWS V14.01,2013-03-11 13:32:00,
2013-03-11 09:37:00,55.2,52.9,30.08,ENE,65,0.0,1.0,92,0.00,,FEW046,0.00,VWS V14.01,2013-03-11 13:37:00,
2013-03-11 09:42:00,55.6,53.3,30.08,ENE,65,0.0,1.0,92,0.00,,FEW046,0.00,VWS V14.01,2013-03-11 13:42:00,
2013-03-11 09:45:00,55.7,53.1,30.08,ENE,65,0.0,1.0,91,0.00,,SCT070,0.00,VWS V14.01,2013-03-11 13:45:00,
2013-03-11 09:47:00,55.9,53.3,30.08,ENE,65,0.0,0.0,91,0.00,,FEW046,0.00,VWS V14.01,2013-03-11 13:47:00,
2013-03-11 09:52:00,56.1,53.2,30.08,ENE,65,0.0,0.0,90,0.00,,FEW046,0.00,VWS V14.01,2013-03-11 13:52:00,
2013-03-11 09:57:00,56.3,53.4,30.08,ENE,65,0.0,0.0,90,0.00,,FEW046,0.00,VWS V14.01,2013-03-11 13:57:00,
2013-03-11 10:00:00,56.5,53.3,30.08,ENE,65,0.0,0.0,89,0.00,,SCT070,0.00,VWS V14.01,2013-03-11 14:00:00,
2013-03-11 10:07:00,57.0,53.8,30.07,ENE,65,0.0,1.0,89,0.00,,BKN046,0.00,VWS V14.01,2013-03-11 14:07:00,
2013-03-11 10:15:00,57.8,54.3,30.07,ENE,65,0.0,2.0,88,0.00,,BKN046,0.00,VWS V14.01,2013-03-11 14:15:00,
2013-03-11 10:22:00,58.4,54.2,30.07,ENE,65,0.0,2.0,86,0.00,,BKN046,0.00,VWS V14.01,2013-03-11 14:22:00,
2013-03-11 10:27:00,58.9,54.7,30.07,ENE,65,0.0,2.0,86,0.00,,BKN046,0.00,VWS V14.01,2013-03-11 14:27:00,
2013-03-11 10:30:00,59.0,54.5,30.07,ENE,65,0.0,2.0,85,0.00,,SCT070,0.00,VWS V14.01,2013-03-11 14:30:00,
2013-03-11 10:32:00,59.0,54.5,30.07,ENE,65,0.0,0.0,85,0.00,,BKN046,0.00,VWS V14.01,2013-03-11 14:32:00,
2013-03-11 10:42:00,60.0,55.5,30.07,ENE,65,0.0,2.0,85,0.00,,BKN046,0.00,VWS V14.01,2013-03-11 14:42:00,
2013-03-11 10:45:00,60.4,55.5,30.06,ENE,65,0.0,2.0,84,0.00,,SCT070,0.00,VWS V14.01,2013-03-11 14:45:00,
2013-03-11 10:47:00,60.8,55.9,30.06,ENE,65,0.0,1.0,84,0.00,,BKN046,0.00,VWS V14.01,2013-03-11 14:47:00,
2013-03-11 10:57:00,62.5,56.6,30.06,ENE,65,0.0,2.0,81,0.00,,BKN046,0.00,VWS V14.01,2013-03-11 14:57:00,
2013-03-11 11:00:00,63.1,56.8,30.07,ENE,65,0.0,2.0,80,0.00,,SCT070,0.00,VWS V14.01,2013-03-11 15:00:00,
2013-03-11 11:02:00,63.3,56.7,30.07,ENE,65,0.0,2.0,79,0.00,,CLR,0.00,VWS V14.01,2013-03-11 15:02:00,
2013-03-11 11:12:00,64.6,56.9,30.07,ENE,65,0.0,2.0,76,0.00,,CLR,0.00,VWS V14.01,2013-03-11 15:12:00,
2013-03-11 11:15:00,64.9,57.2,30.06,ENE,65,0.0,2.0,76,0.00,,SCT070,0.00,VWS V14.01,2013-03-11 15:15:00,
2013-03-11 11:22:00,65.3,57.5,30.06,ENE,65,0.0,0.0,76,0.00,,CLR,0.00,VWS V14.01,2013-03-11 15:22:00,
2013-03-11 11:27:00,65.4,56.9,30.06,ENE,65,0.0,2.0,74,0.00,,CLR,0.00,VWS V14.01,2013-03-11 15:27:00,
2013-03-11 11:30:00,65.4,56.9,30.06,ENE,65,0.0,2.0,74,0.00,,SCT070,0.00,VWS V14.01,2013-03-11 15:30:00,
2013-03-11 11:37:00,65.4,57.3,30.05,ENE,65,0.0,1.0,75,0.00,,CLR,0.00,VWS V14.01,2013-03-11 15:37:00,
2013-03-11 11:42:00,65.6,57.1,30.05,NNW,340,0.0,3.0,74,0.00,,CLR,0.00,VWS V14.01,2013-03-11 15:42:00,
2013-03-11 11:45:00,65.8,56.9,30.05,NNW,340,0.0,3.0,73,0.00,,SCT070,0.00,VWS V14.01,2013-03-11 15:45:00,
2013-03-11 11:52:00,66.5,56.0,30.05,South,177,1.0,5.0,69,0.00,,CLR,0.00,VWS V14.01,2013-03-11 15:52:00,
2013-03-11 12:00:00,67.9,56.5,30.05,South,176,0.0,5.0,67,0.00,,CLR,0.00,VWS V14.01,2013-03-11 16:00:00,
2013-03-11 12:07:00,68.1,56.3,30.05,South,177,0.0,2.0,66,0.00,,BKN050,0.00,VWS V14.01,2013-03-11 16:07:00,
2013-03-11 12:15:00,68.1,56.3,30.05,South,191,0.0,5.0,66,0.00,,BKN050,0.00,VWS V14.01,2013-03-11 16:15:00,
2013-03-11 12:22:00,68.6,56.4,30.04,South,179,1.0,4.0,65,0.00,,BKN050,0.00,VWS V14.01,2013-03-11 16:22:00,
2013-03-11 12:27:00,69.2,56.5,30.04,SSW,205,2.0,5.0,64,0.00,,BKN050,0.00,VWS V14.01,2013-03-11 16:27:00,
2013-03-11 12:30:00,69.5,56.4,30.04,South,180,4.0,5.0,63,0.00,,SCT070,0.00,VWS V14.01,2013-03-11 16:30:00,
2013-03-11 12:32:00,69.6,56.5,30.04,South,180,0.0,4.0,63,0.00,,BKN050,0.00,VWS V14.01,2013-03-11 16:32:00,
2013-03-11 12:42:00,70.1,56.9,30.04,SSW,196,1.0,6.0,63,0.00,,BKN050,0.00,VWS V14.01,2013-03-11 16:42:00,
2013-03-11 12:45:00,70.3,55.8,30.04,South,180,0.0,6.0,60,0.00,,SCT070,0.00,VWS V14.01,2013-03-11 16:45:00,
2013-03-11 12:47:00,70.2,56.1,30.04,South,180,0.0,3.0,61,0.00,,BKN050,0.00,VWS V14.01,2013-03-11 16:47:00,
2013-03-11 12:57:00,70.2,56.1,30.03,South,179,1.0,5.0,61,0.00,,BKN050,0.00,VWS V14.01,2013-03-11 16:57:00,
2013-03-11 13:00:00,70.4,55.9,30.03,South,179,0.0,5.0,60,0.00,,SCT070,0.00,VWS V14.01,2013-03-11 17:00:00,
2013-03-11 13:07:00,70.6,55.1,30.02,South,178,0.0,2.0,58,0.00,,BKN060,0.00,VWS V14.01,2013-03-11 17:07:00,
2013-03-11 13:15:00,70.5,55.0,30.02,SSW,197,0.0,4.0,58,0.00,,BKN060,0.00,VWS V14.01,2013-03-11 17:15:00,
2013-03-11 13:22:00,70.4,54.5,30.02,South,182,2.0,5.0,57,0.00,,BKN060,0.00,VWS V14.01,2013-03-11 17:22:00,
2013-03-11 13:27:00,70.0,55.0,30.01,South,178,0.0,5.0,59,0.00,,BKN060,0.00,VWS V14.01,2013-03-11 17:27:00,
2013-03-11 13:30:00,70.0,55.0,30.01,South,178,0.0,5.0,59,0.00,,SCT070,0.00,VWS V14.01,2013-03-11 17:30:00,
2013-03-11 13:32:00,70.0,55.0,30.01,South,178,2.0,4.0,59,0.00,,BKN060,0.00,VWS V14.01,2013-03-11 17:32:00,
2013-03-11 13:37:00,70.2,55.2,30.01,South,178,0.0,4.0,59,0.00,,BKN060,0.00,VWS V14.01,2013-03-11 17:37:00,
2013-03-11 13:42:00,70.7,55.7,30.01,South,178,0.0,4.0,59,0.00,,BKN060,0.00,VWS V14.01,2013-03-11 17:42:00,
2013-03-11 13:45:00,71.1,55.6,30.01,South,178,1.0,4.0,58,0.00,,SCT070,0.00,VWS V14.01,2013-03-11 17:45:00,
2013-03-11 13:52:00,71.2,55.2,30.00,South,178,2.0,5.0,57,0.00,,BKN060,0.00,VWS V14.01,2013-03-11 17:52:00,
2013-03-11 14:00:00,71.4,55.9,29.99,South,190,1.0,5.0,58,0.00,,BKN060,0.00,VWS V14.01,2013-03-11 18:00:00,
2013-03-11 14:07:00,72.6,55.5,29.99,SSW,194,4.0,5.0,55,0.00,,BKN060,0.00,VWS V14.01,2013-03-11 18:07:00,
2013-03-11 14:15:00,73.7,56.0,29.99,SSW,198,3.0,6.0,54,0.00,,BKN060,0.00,VWS V14.01,2013-03-11 18:15:00,
2013-03-11 14:22:00,74.2,56.0,29.98,SSW,194,0.0,5.0,53,0.00,,BKN060,0.00,VWS V14.01,2013-03-11 18:22:00,
2013-03-11 14:30:00,74.1,55.4,29.97,South,183,2.0,6.0,52,0.00,,BKN060,0.00,VWS V14.01,2013-03-11 18:30:00,
2013-03-11 14:37:00,73.1,55.5,29.97,ESE,116,2.0,5.0,54,0.00,,BKN060,0.00,VWS V14.01,2013-03-11 18:37:00,
2013-03-11 14:42:00,72.5,54.9,29.97,South,169,4.0,5.0,54,0.00,,BKN060,0.00,VWS V14.01,2013-03-11 18:42:00,
2013-03-11 14:45:00,72.1,54.6,29.97,South,171,1.0,5.0,54,0.00,,SCT070,0.00,VWS V14.01,2013-03-11 18:45:00,
2013-03-11 14:57:00,71.9,54.4,29.96,South,175,1.0,5.0,54,0.00,,BKN060,0.00,VWS V14.01,2013-03-11 18:57:00,
2013-03-11 15:00:00,71.9,54.4,29.95,South,173,2.0,5.0,54,0.00,,SCT070,0.00,VWS V14.01,2013-03-11 19:00:00,
2013-03-11 15:02:00,71.9,53.9,29.95,South,173,3.0,4.0,53,0.00,,OVC065,0.00,VWS V14.01,2013-03-11 19:02:00,
2013-03-11 15:12:00,72.3,54.7,29.94,SSW,198,1.0,5.0,54,0.00,,OVC065,0.00,VWS V14.01,2013-03-11 19:12:00,
2013-03-11 15:15:00,72.2,54.7,29.94,South,180,4.0,5.0,54,0.00,,SCT070,0.00,VWS V14.01,2013-03-11 19:15:00,
2013-03-11 15:17:00,72.1,54.6,29.94,South,177,1.0,6.0,54,0.00,,OVC065,0.00,VWS V14.01,2013-03-11 19:17:00,
2013-03-11 15:27:00,71.4,54.4,29.94,South,176,1.0,6.0,55,0.00,,OVC065,0.00,VWS V14.01,2013-03-11 19:27:00,
2013-03-11 15:30:00,71.3,54.8,29.94,South,179,2.0,6.0,56,0.00,,SCT070,0.00,VWS V14.01,2013-03-11 19:30:00,
2013-03-11 15:32:00,71.2,54.7,29.94,South,178,1.0,5.0,56,0.00,,OVC065,0.00,VWS V14.01,2013-03-11 19:32:00,
2013-03-11 15:37:00,70.7,54.2,29.94,South,175,5.0,5.0,56,0.00,,OVC065,0.00,VWS V14.01,2013-03-11 19:37:00,
2013-03-11 15:42:00,70.5,54.5,29.94,South,183,0.0,5.0,57,0.00,,OVC065,0.00,VWS V14.01,2013-03-11 19:42:00,
2013-03-11 15:45:00,70.5,54.5,29.94,South,184,1.0,5.0,57,0.00,,SCT070,0.00,VWS V14.01,2013-03-11 19:45:00,
2013-03-11 15:47:00,70.4,54.5,29.94,South,175,1.0,5.0,57,0.00,,OVC065,0.00,VWS V14.01,2013-03-11 19:47:00,
2013-03-11 15:57:00,70.6,54.2,29.93,South,173,2.0,5.0,56,0.00,,OVC065,0.00,VWS V14.01,2013-03-11 19:57:00,
2013-03-11 16:00:00,70.7,54.7,29.93,South,174,0.0,5.0,57,0.00,,SCT070,0.00,VWS V14.01,2013-03-11 20:00:00,
2013-03-11 16:02:00,70.8,54.3,29.92,South,175,1.0,5.0,56,0.00,,OVC065,0.00,VWS V14.01,2013-03-11 20:02:00,
2013-03-11 16:12:00,70.9,54.9,29.92,South,171,3.0,6.0,57,0.00,,OVC065,0.00,VWS V14.01,2013-03-11 20:12:00,
2013-03-11 16:15:00,71.0,55.0,29.92,South,172,1.0,6.0,57,0.00,,SCT070,0.00,VWS V14.01,2013-03-11 20:15:00,
2013-03-11 16:22:00,71.1,55.1,29.92,South,176,0.0,5.0,57,0.00,,OVC065,0.00,VWS V14.01,2013-03-11 20:22:00,
2013-03-11 16:27:00,70.8,54.8,29.92,South,178,2.0,6.0,57,0.00,,OVC065,0.00,VWS V14.01,2013-03-11 20:27:00,
2013-03-11 16:30:00,70.7,54.7,29.92,South,175,5.0,6.0,57,0.00,,SCT070,0.00,VWS V14.01,2013-03-11 20:30:00,
2013-03-11 16:37:00,70.4,54.9,29.92,South,175,1.0,5.0,58,0.00,,OVC065,0.00,VWS V14.01,2013-03-11 20:37:00,
2013-03-11 16:42:00,70.3,55.3,29.93,South,175,0.0,5.0,59,0.00,,OVC065,0.00,VWS V14.01,2013-03-11 20:42:00,
2013-03-11 16:45:00,70.3,55.3,29.93,South,175,2.0,5.0,59,0.00,,SCT070,0.00,VWS V14.01,2013-03-11 20:45:00,
2013-03-11 16:52:00,70.4,55.4,29.92,South,175,2.0,5.0,59,0.00,,OVC065,0.00,VWS V14.01,2013-03-11 20:52:00,
2013-03-11 16:57:00,70.3,55.3,29.92,South,175,0.0,5.0,59,0.00,,OVC065,0.00,VWS V14.01,2013-03-11 20:57:00,
2013-03-11 17:00:00,70.3,55.3,29.92,South,175,2.0,5.0,59,0.00,,SCT070,0.00,VWS V14.01,2013-03-11 21:00:00,
2013-03-11 17:02:00,70.3,55.3,29.92,South,175,1.0,2.0,59,0.00,,BKN060,0.00,VWS V14.01,2013-03-11 21:02:00,
2013-03-11 17:12:00,70.2,55.7,29.92,South,175,3.0,4.0,60,0.00,,BKN060,0.00,VWS V14.01,2013-03-11 21:12:00,
2013-03-11 17:15:00,70.1,55.6,29.92,South,175,1.0,4.0,60,0.00,,SCT070,0.00,VWS V14.01,2013-03-11 21:15:00,
2013-03-11 17:17:00,70.1,56.0,29.92,South,175,0.0,5.0,61,0.00,,BKN060,0.00,VWS V14.01,2013-03-11 21:17:00,
2013-03-11 17:27:00,69.9,55.8,29.92,South,175,1.0,5.0,61,0.00,,BKN060,0.00,VWS V14.01,2013-03-11 21:27:00,
2013-03-11 17:30:00,69.8,56.2,29.91,South,175,1.0,5.0,62,0.00,,SCT070,0.00,VWS V14.01,2013-03-11 21:30:00,
2013-03-11 17:37:00,69.7,56.1,29.91,South,175,1.0,3.0,62,0.00,,BKN060,0.00,VWS V14.01,2013-03-11 21:37:00,
2013-03-11 17:42:00,69.6,56.0,29.91,South,175,0.0,4.0,62,0.00,,BKN060,0.00,VWS V14.01,2013-03-11 21:42:00,
2013-03-11 17:45:00,69.5,55.9,29.91,South,175,1.0,4.0,62,0.00,,SCT070,0.00,VWS V14.01,2013-03-11 21:45:00,
2013-03-11 17:52:00,69.4,56.3,29.91,South,175,0.0,2.0,63,0.00,,BKN060,0.00,VWS V14.01,2013-03-11 21:52:00,
2013-03-11 18:00:00,69.2,55.6,29.90,SSE,165,1.0,3.0,62,0.00,,BKN060,0.00,VWS V14.01,2013-03-11 22:00:00,
2013-03-11 18:07:00,69.1,55.5,29.90,SSE,166,2.0,3.0,62,0.00,,FEW047,0.00,VWS V14.01,2013-03-11 22:07:00,
2013-03-11 18:15:00,68.8,55.7,29.90,South,169,0.0,5.0,63,0.00,,FEW047,0.00,VWS V14.01,2013-03-11 22:15:00,
2013-03-11 18:22:00,68.6,56.4,29.90,South,169,0.0,1.0,65,0.00,,FEW047,0.00,VWS V14.01,2013-03-11 22:22:00,
2013-03-11 18:27:00,68.4,56.2,29.90,South,169,0.0,2.0,65,0.00,,FEW047,0.00,VWS V14.01,2013-03-11 22:27:00,
2013-03-11 18:30:00,68.3,56.1,29.89,South,169,0.0,2.0,65,0.00,,SCT070,0.00,VWS V14.01,2013-03-11 22:30:00,
2013-03-11 18:37:00,68.1,56.3,29.90,SSE,168,1.0,2.0,66,0.00,,FEW047,0.00,VWS V14.01,2013-03-11 22:37:00,
2013-03-11 18:42:00,67.9,56.5,29.90,SSE,168,0.0,3.0,67,0.00,,FEW047,0.00,VWS V14.01,2013-03-11 22:42:00,
2013-03-11 18:45:00,67.8,56.5,29.89,South,169,1.0,3.0,67,0.00,,SCT070,0.00,VWS V14.01,2013-03-11 22:45:00,
2013-03-11 18:52:00,67.5,56.6,29.89,South,169,2.0,4.0,68,0.00,,FEW047,0.00,VWS V14.01,2013-03-11 22:52:00,
2013-03-11 19:00:00,67.1,56.6,29.89,South,169,2.0,4.0,69,0.00,,FEW047,0.00,VWS V14.01,2013-03-11 23:00:00,
2013-03-11 19:12:00,66.7,56.6,29.90,SSE,168,1.0,5.0,70,0.00,,SCT037,0.00,VWS V14.01,2013-03-11 23:12:00,
2013-03-11 19:15:00,66.5,56.4,29.90,SSE,168,0.0,5.0,70,0.00,,SCT070,0.00,VWS V14.01,2013-03-11 23:15:00,
2013-03-11 19:17:00,66.5,56.4,29.90,SSE,168,0.0,2.0,70,0.00,,SCT037,0.00,VWS V14.01,2013-03-11 23:17:00,
2013-03-11 19:22:00,66.3,56.2,29.90,South,169,1.0,2.0,70,0.00,,SCT037,0.00,VWS V14.01,2013-03-11 23:22:00,
2013-03-11 19:30:00,66.1,56.4,29.89,South,169,0.0,2.0,71,0.00,,SCT037,0.00,VWS V14.01,2013-03-11 23:30:00,
2013-03-11 19:37:00,65.8,56.5,29.88,South,169,0.0,1.0,72,0.00,,SCT037,0.00,VWS V14.01,2013-03-11 23:37:00,
2013-03-11 19:42:00,65.6,56.3,29.87,SSE,168,0.0,1.0,72,0.00,,SCT037,0.00,VWS V14.01,2013-03-11 23:42:00,
2013-03-11 19:45:00,65.4,56.2,29.87,South,169,0.0,2.0,72,0.00,,SCT070,0.00,VWS V14.01,2013-03-11 23:45:00,
2013-03-11 19:47:00,65.4,56.5,29.87,South,169,0.0,1.0,73,0.00,,SCT037,0.00,VWS V14.01,2013-03-11 23:47:00,
2013-03-11 19:57:00,65.0,56.2,29.87,South,169,0.0,1.0,73,0.00,,SCT037,0.00,VWS V14.01,2013-03-11 23:57:00,
2013-03-11 20:00:00,65.0,56.2,29.87,South,169,0.0,1.0,73,0.00,,SCT070,0.00,VWS V14.01,2013-03-12 00:00:00,
2013-03-11 20:02:00,64.9,56.0,29.88,South,169,0.0,1.0,73,0.00,,CLR,0.00,VWS V14.01,2013-03-12 00:02:00,
2013-03-11 20:11:00,64.7,56.2,29.88,SSE,168,0.0,1.0,74,0.00,,CLR,0.00,VWS V14.01,2013-03-12 00:11:00,
2013-03-11 20:15:00,64.6,56.5,29.88,SSE,168,0.0,1.0,75,0.00,,SCT070,0.00,VWS V14.01,2013-03-12 00:15:00,
2013-03-11 20:16:00,64.6,56.5,29.88,South,169,0.0,0.0,75,0.00,,CLR,0.00,VWS V14.01,2013-03-12 00:16:00,
2013-03-11 20:26:00,64.4,56.3,29.88,South,169,0.0,1.0,75,0.00,,CLR,0.00,VWS V14.01,2013-03-12 00:26:00,
2013-03-11 20:30:00,64.4,56.3,29.88,South,169,0.0,1.0,75,0.00,,SCT070,0.00,VWS V14.01,2013-03-12 00:30:00,
2013-03-11 20:31:00,64.3,56.2,29.88,South,169,0.0,0.0,75,0.00,,CLR,0.00,VWS V14.01,2013-03-12 00:31:00,
2013-03-11 20:41:00,64.2,56.5,29.88,SSE,168,0.0,1.0,76,0.00,,CLR,0.00,VWS V14.01,2013-03-12 00:41:00,
2013-03-11 20:45:00,64.1,56.4,29.88,South,169,0.0,1.0,76,0.00,,SCT070,0.00,VWS V14.01,2013-03-12 00:45:00,
2013-03-11 20:46:00,64.1,56.4,29.89,South,169,0.0,0.0,76,0.00,,CLR,0.00,VWS V14.01,2013-03-12 00:46:00,
2013-03-11 20:52:00,64.0,56.7,29.88,South,169,0.0,0.0,77,0.00,,CLR,0.00,VWS V14.01,2013-03-12 00:52:00,
2013-03-11 20:56:00,63.9,56.6,29.89,South,169,0.0,0.0,77,0.00,,CLR,0.00,VWS V14.01,2013-03-12 00:56:00,
2013-03-11 21:00:00,63.9,56.6,29.88,South,169,0.0,0.0,77,0.00,,SCT070,0.00,VWS V14.01,2013-03-12 01:00:00,
2013-03-11 21:01:00,63.8,56.5,29.87,South,169,0.0,0.0,77,0.00,,CLR,0.00,VWS V14.01,2013-03-12 01:01:00,
2013-03-11 21:07:00,63.7,56.4,29.88,South,169,0.0,0.0,77,0.00,,CLR,0.00,VWS V14.01,2013-03-12 01:07:00,
2013-03-11 21:12:00,63.6,56.6,29.88,South,169,0.0,0.0,78,0.00,,CLR,0.00,VWS V14.01,2013-03-12 01:12:00,
2013-03-11 21:15:00,63.5,56.5,29.88,South,169,0.0,0.0,78,0.00,,SCT070,0.00,VWS V14.01,2013-03-12 01:15:00,
2013-03-11 21:22:00,63.4,56.4,29.88,SSE,168,0.0,0.0,78,0.00,,CLR,0.00,VWS V14.01,2013-03-12 01:22:00,
2013-03-11 21:27:00,63.2,56.6,29.88,SSE,168,0.0,0.0,79,0.00,,CLR,0.00,VWS V14.01,2013-03-12 01:27:00,
2013-03-11 21:30:00,63.1,56.5,29.88,SSE,168,0.0,0.0,79,0.00,,SCT070,0.00,VWS V14.01,2013-03-12 01:30:00,
2013-03-11 21:37:00,63.0,56.7,29.88,South,169,0.0,0.0,80,0.00,,CLR,0.00,VWS V14.01,2013-03-12 01:37:00,
2013-03-11 21:41:00,62.9,56.6,29.88,South,169,0.0,0.0,80,0.00,,CLR,0.00,VWS V14.01,2013-03-12 01:41:00,
2013-03-11 21:45:00,62.9,56.6,29.88,South,169,0.0,0.0,80,0.00,,SCT070,0.00,VWS V14.01,2013-03-12 01:45:00,
2013-03-11 21:52:00,62.8,56.5,29.88,SSE,168,0.0,0.0,80,0.00,,CLR,0.00,VWS V14.01,2013-03-12 01:52:00,
2013-03-11 21:57:00,62.8,56.5,29.89,South,169,0.0,0.0,80,0.00,,CLR,0.00,VWS V14.01,2013-03-12 01:57:00,
2013-03-11 22:00:00,62.8,56.5,29.89,SSE,168,0.0,0.0,80,0.00,,SCT070,0.00,VWS V14.01,2013-03-12 02:00:00,
2013-03-11 22:02:00,62.7,56.5,29.88,South,169,0.0,0.0,80,0.00,,CLR,0.00,VWS V14.01,2013-03-12 02:02:00,
2013-03-11 22:07:00,62.6,56.7,29.88,SSE,168,0.0,0.0,81,0.00,,CLR,0.00,VWS V14.01,2013-03-12 02:07:00,
2013-03-11 22:12:00,62.6,56.7,29.88,SSE,168,0.0,2.0,81,0.00,,CLR,0.00,VWS V14.01,2013-03-12 02:12:00,
2013-03-11 22:15:00,62.6,56.7,29.88,South,169,0.0,2.0,81,0.00,,SCT070,0.00,VWS V14.01,2013-03-12 02:15:00,
2013-03-11 22:17:00,62.6,56.7,29.88,South,169,0.0,0.0,81,0.00,,CLR,0.00,VWS V14.01,2013-03-12 02:17:00,
2013-03-11 22:22:00,62.6,56.7,29.87,South,169,0.0,0.0,81,0.00,,CLR,0.00,VWS V14.01,2013-03-12 02:22:00,
2013-03-11 22:27:00,62.6,57.0,29.87,South,169,0.0,0.0,82,0.00,,CLR,0.00,VWS V14.01,2013-03-12 02:27:00,
2013-03-11 22:30:00,62.5,56.9,29.87,South,169,0.0,1.0,82,0.00,,SCT070,0.00,VWS V14.01,2013-03-12 02:30:00,
2013-03-11 22:37:00,62.4,56.8,29.86,SSE,168,0.0,1.0,82,0.00,,CLR,0.00,VWS V14.01,2013-03-12 02:37:00,
2013-03-11 22:42:00,62.3,56.7,29.85,South,169,0.0,1.0,82,0.00,,CLR,0.00,VWS V14.01,2013-03-12 02:42:00,
2013-03-11 22:45:00,62.2,56.7,29.86,SSE,168,0.0,1.0,82,0.00,,SCT070,0.00,VWS V14.01,2013-03-12 02:45:00,
2013-03-11 22:52:00,62.1,56.9,29.86,South,169,0.0,1.0,83,0.00,,CLR,0.00,VWS V14.01,2013-03-12 02:52:00,
2013-03-11 22:57:00,62.0,56.8,29.86,South,169,0.0,1.0,83,0.00,,CLR,0.00,VWS V14.01,2013-03-12 02:57:00,
2013-03-11 23:00:00,61.9,56.7,29.87,SSE,168,0.0,1.0,83,0.00,,SCT070,0.00,VWS V14.01,2013-03-12 03:00:00,
2013-03-11 23:02:00,61.9,56.7,29.87,South,169,0.0,0.0,83,0.00,,-RA,0.00,VWS V14.01,2013-03-12 03:02:00,
2013-03-11 23:07:00,61.8,56.9,29.86,South,169,0.0,0.0,84,0.00,,-RA,0.00,VWS V14.01,2013-03-12 03:07:00,
2013-03-11 23:15:00,61.7,56.8,29.87,SSE,168,0.0,0.0,84,0.00,,-RA,0.00,VWS V14.01,2013-03-12 03:15:00,
2013-03-11 23:22:00,61.7,57.2,29.87,South,169,0.0,0.0,85,0.00,,-RA,0.00,VWS V14.01,2013-03-12 03:22:00,
2013-03-11 23:27:00,61.8,57.2,29.86,SSE,168,0.0,0.0,85,0.00,,-RA,0.00,VWS V14.01,2013-03-12 03:27:00,
2013-03-11 23:30:00,61.9,57.7,29.85,South,169,0.0,1.0,86,0.00,,SCT070,0.00,VWS V14.01,2013-03-12 03:30:00,
2013-03-11 23:32:00,61.9,57.7,29.85,SSE,168,0.0,0.0,86,0.00,,-RA,0.00,VWS V14.01,2013-03-12 03:32:00,
2013-03-11 23:37:00,62.0,57.8,29.85,South,169,0.0,1.0,86,0.00,,-RA,0.00,VWS V14.01,2013-03-12 03:37:00,
2013-03-11 23:42:00,62.1,57.9,29.85,South,169,0.0,2.0,86,0.00,,-RA,0.00,VWS V14.01,2013-03-12 03:42:00,
2013-03-11 23:45:00,62.2,58.0,29.86,South,169,0.0,2.0,86,0.00,,SCT070,0.00,VWS V14.01,2013-03-12 03:45:00,
2013-03-11 23:47:00,62.2,58.0,29.86,SSE,168,0.0,0.0,86,0.00,,-RA,0.00,VWS V14.01,2013-03-12 03:47:00,
2013-03-11 23:52:00,62.2,58.3,29.87,SSE,168,0.0,1.0,87,0.00,,-RA,0.00,VWS V14.01,2013-03-12 03:52:00,
2013-03-11 23:57:00,62.2,58.3,29.87,SSE,168,0.0,1.0,87,0.00,,-RA,0.00,VWS V14.01,2013-03-12 03:57:00,